sensor_id;sensor_type;location;lat;lon;timestamp;pressure;altitude;pressure_sealevel;temperature;humidity
7075;BME280;3578;51.568;6.932;2022-08-02T00:01:43;55395.13;;;-144.14;96.76
7075;BME280;3578;51.568;6.932;2022-08-02T00:04:12;55357.03;;;-144.14;96.85
7075;BME280;3578;51.568;6.932;2022-08-02T00:06:39;55347.00;;;-144.14;96.76
7075;BME280;3578;51.568;6.932;2022-08-02T00:09:06;55373.06;;;-144.14;96.55
7075;BME280;3578;51.568;6.932;2022-08-02T00:11:33;55318.94;;;-144.14;96.65
7075;BME280;3578;51.568;6.932;2022-08-02T00:14:00;55330.97;;;-144.14;96.70
7075;BME280;3578;51.568;6.932;2022-08-02T00:16:27;55306.91;;;-144.14;97.06
7075;BME280;3578;51.568;6.932;2022-08-02T00:18:54;55320.94;;;-144.14;97.10
7075;BME280;3578;51.568;6.932;2022-08-02T00:21:23;55316.91;;;-144.14;97.35
7075;BME280;3578;51.568;6.932;2022-08-02T00:23:50;55316.91;;;-144.14;97.61
7075;BME280;3578;51.568;6.932;2022-08-02T00:26:17;55298.88;;;-144.14;97.56
7075;BME280;3578;51.568;6.932;2022-08-02T00:28:44;55304.88;;;-144.14;97.64
7075;BME280;3578;51.568;6.932;2022-08-02T00:31:11;55320.94;;;-144.14;97.78
7075;BME280;3578;51.568;6.932;2022-08-02T00:33:38;55316.91;;;-144.14;98.07
7075;BME280;3578;51.568;6.932;2022-08-02T00:36:05;55324.94;;;-144.14;98.43
7075;BME280;3578;51.568;6.932;2022-08-02T00:38:34;55320.94;;;-144.14;98.11
7075;BME280;3578;51.568;6.932;2022-08-02T00:41:01;55334.97;;;-144.14;97.98
7075;BME280;3578;51.568;6.932;2022-08-02T00:43:28;55292.84;;;-144.14;97.91
7075;BME280;3578;51.568;6.932;2022-08-02T00:45:55;55328.94;;;-144.14;97.73
7075;BME280;3578;51.568;6.932;2022-08-02T00:48:22;55351.00;;;-144.14;97.58
7075;BME280;3578;51.568;6.932;2022-08-02T00:50:49;55343.00;;;-144.14;97.40
7075;BME280;3578;51.568;6.932;2022-08-02T00:53:16;55296.88;;;-144.14;97.61
7075;BME280;3578;51.568;6.932;2022-08-02T00:55:45;55286.84;;;-144.14;97.45
7075;BME280;3578;51.568;6.932;2022-08-02T00:58:12;55330.97;;;-144.14;97.48
7075;BME280;3578;51.568;6.932;2022-08-02T01:00:39;55318.94;;;-144.14;97.23
7075;BME280;3578;51.568;6.932;2022-08-02T01:03:06;55252.75;;;-144.14;97.05
7075;BME280;3578;51.568;6.932;2022-08-02T01:05:33;55288.84;;;-144.14;96.92
7075;BME280;3578;51.568;6.932;2022-08-02T01:08:01;55272.81;;;-144.14;96.78
7075;BME280;3578;51.568;6.932;2022-08-02T01:10:28;55258.78;;;-144.14;96.88
7075;BME280;3578;51.568;6.932;2022-08-02T01:12:57;55234.72;;;-144.14;96.95
7075;BME280;3578;51.568;6.932;2022-08-02T01:15:25;55254.75;;;-144.14;96.92
7075;BME280;3578;51.568;6.932;2022-08-02T01:17:59;55242.72;;;-144.14;97.16
7075;BME280;3578;51.568;6.932;2022-08-02T01:21:02;55250.75;;;-144.14;97.34
7075;BME280;3578;51.568;6.932;2022-08-02T01:23:50;55236.72;;;-144.14;97.64
7075;BME280;3578;51.568;6.932;2022-08-02T01:26:34;55214.66;;;-144.14;97.47
7075;BME280;3578;51.568;6.932;2022-08-02T01:29:12;55250.75;;;-144.14;97.50
7075;BME280;3578;51.568;6.932;2022-08-02T01:31:48;55190.59;;;-144.14;97.43
7075;BME280;3578;51.568;6.932;2022-08-02T01:34:21;55216.66;;;-144.14;97.75
7075;BME280;3578;51.568;6.932;2022-08-02T01:36:56;55254.75;;;-144.14;97.97
7075;BME280;3578;51.568;6.932;2022-08-02T01:39:27;55206.63;;;-144.14;97.87
7075;BME280;3578;51.568;6.932;2022-08-02T01:41:56;55210.63;;;-144.14;97.81
7075;BME280;3578;51.568;6.932;2022-08-02T01:44:31;55176.56;;;-144.14;97.88
7075;BME280;3578;51.568;6.932;2022-08-02T01:47:16;55202.63;;;-144.14;97.96
7075;BME280;3578;51.568;6.932;2022-08-02T01:49:47;55204.63;;;-144.14;98.23
7075;BME280;3578;51.568;6.932;2022-08-02T01:52:18;55176.56;;;-144.14;98.14
7075;BME280;3578;51.568;6.932;2022-08-02T01:54:51;55226.69;;;-144.14;97.90
7075;BME280;3578;51.568;6.932;2022-08-02T01:57:21;55174.56;;;-144.14;97.72
7075;BME280;3578;51.568;6.932;2022-08-02T01:59:53;55190.59;;;-144.14;97.62
7075;BME280;3578;51.568;6.932;2022-08-02T02:02:22;55200.63;;;-144.14;97.64
7075;BME280;3578;51.568;6.932;2022-08-02T02:04:52;55128.44;;;-144.14;98.07
7075;BME280;3578;51.568;6.932;2022-08-02T02:07:20;55156.50;;;-144.14;98.28
7075;BME280;3578;51.568;6.932;2022-08-02T02:09:49;55160.50;;;-144.14;98.05
7075;BME280;3578;51.568;6.932;2022-08-02T02:12:18;55118.41;;;-144.14;98.29
7075;BME280;3578;51.568;6.932;2022-08-02T02:14:47;55138.44;;;-144.14;98.47
7075;BME280;3578;51.568;6.932;2022-08-02T02:17:18;55082.31;;;-144.14;98.55
7075;BME280;3578;51.568;6.932;2022-08-02T02:19:47;55132.44;;;-144.14;98.18
7075;BME280;3578;51.568;6.932;2022-08-02T02:22:15;55146.47;;;-144.14;98.23
7075;BME280;3578;51.568;6.932;2022-08-02T02:24:42;55102.34;;;-144.14;98.31
7075;BME280;3578;51.568;6.932;2022-08-02T02:27:11;55136.44;;;-144.14;98.16
7075;BME280;3578;51.568;6.932;2022-08-02T02:29:44;55142.47;;;-144.14;98.24
7075;BME280;3578;51.568;6.932;2022-08-02T02:32:14;55086.31;;;-144.14;98.24
7075;BME280;3578;51.568;6.932;2022-08-02T02:34:45;55070.28;;;-144.14;98.44
7075;BME280;3578;51.568;6.932;2022-08-02T02:37:19;55082.31;;;-144.14;98.51
7075;BME280;3578;51.568;6.932;2022-08-02T02:39:50;55104.38;;;-144.14;98.54
7075;BME280;3578;51.568;6.932;2022-08-02T02:42:24;55074.28;;;-144.14;98.51
7075;BME280;3578;51.568;6.932;2022-08-02T02:44:53;55102.34;;;-144.14;98.59
7075;BME280;3578;51.568;6.932;2022-08-02T02:47:21;54943.94;;;-144.14;98.80
7075;BME280;3578;51.568;6.932;2022-08-02T02:49:51;55054.25;;;-144.14;98.87
7075;BME280;3578;51.568;6.932;2022-08-02T02:52:18;55026.16;;;-144.14;99.08
7075;BME280;3578;51.568;6.932;2022-08-02T02:54:47;55046.22;;;-144.14;99.13
7075;BME280;3578;51.568;6.932;2022-08-02T02:57:15;55050.22;;;-144.14;99.26
7075;BME280;3578;51.568;6.932;2022-08-02T02:59:43;55018.16;;;-144.14;99.29
7075;BME280;3578;51.568;6.932;2022-08-02T03:02:10;55006.13;;;-144.14;99.29
7075;BME280;3578;51.568;6.932;2022-08-02T03:04:40;55034.19;;;-144.14;99.32
7075;BME280;3578;51.568;6.932;2022-08-02T03:07:10;55022.16;;;-144.14;99.42
7075;BME280;3578;51.568;6.932;2022-08-02T03:09:37;55024.16;;;-144.14;99.44
7075;BME280;3578;51.568;6.932;2022-08-02T03:12:05;55034.19;;;-144.14;99.49
7075;BME280;3578;51.568;6.932;2022-08-02T03:14:33;54984.06;;;-144.14;99.65
7075;BME280;3578;51.568;6.932;2022-08-02T03:17:00;55034.19;;;-144.14;99.67
7075;BME280;3578;51.568;6.932;2022-08-02T03:19:27;54976.03;;;-144.14;100.00
7075;BME280;3578;51.568;6.932;2022-08-02T03:21:54;55004.09;;;-144.14;99.73
7075;BME280;3578;51.568;6.932;2022-08-02T03:24:23;55052.22;;;-144.14;99.68
7075;BME280;3578;51.568;6.932;2022-08-02T03:26:50;55018.16;;;-144.14;99.50
7075;BME280;3578;51.568;6.932;2022-08-02T03:29:17;55026.16;;;-144.14;99.37
7075;BME280;3578;51.568;6.932;2022-08-02T03:31:45;55022.16;;;-144.14;99.36
7075;BME280;3578;51.568;6.932;2022-08-02T03:34:13;55018.16;;;-144.14;99.44
7075;BME280;3578;51.568;6.932;2022-08-02T03:36:40;54976.03;;;-144.14;99.46
7075;BME280;3578;51.568;6.932;2022-08-02T03:39:08;54970.03;;;-144.14;99.36
7075;BME280;3578;51.568;6.932;2022-08-02T03:41:38;54978.03;;;-144.14;99.33
7075;BME280;3578;51.568;6.932;2022-08-02T03:44:07;54982.06;;;-144.14;99.34
7075;BME280;3578;51.568;6.932;2022-08-02T03:46:34;55004.09;;;-144.14;99.39
7075;BME280;3578;51.568;6.932;2022-08-02T03:49:05;55010.13;;;-144.14;99.26
7075;BME280;3578;51.568;6.932;2022-08-02T03:51:34;54990.06;;;-144.14;99.20
7075;BME280;3578;51.568;6.932;2022-08-02T03:54:02;55002.09;;;-144.14;99.25
7075;BME280;3578;51.568;6.932;2022-08-02T03:56:30;54982.06;;;-144.14;99.33
7075;BME280;3578;51.568;6.932;2022-08-02T03:59:10;55006.13;;;-144.14;99.35
7075;BME280;3578;51.568;6.932;2022-08-02T04:01:38;55008.13;;;-144.14;99.33
7075;BME280;3578;51.568;6.932;2022-08-02T04:04:06;55014.13;;;-144.14;99.24
7075;BME280;3578;51.568;6.932;2022-08-02T04:06:33;54941.94;;;-144.14;99.21
7075;BME280;3578;51.568;6.932;2022-08-02T04:09:00;54986.06;;;-144.14;99.29
7075;BME280;3578;51.568;6.932;2022-08-02T04:11:28;54990.06;;;-144.14;99.46
7075;BME280;3578;51.568;6.932;2022-08-02T04:13:59;54984.06;;;-144.14;99.42
7075;BME280;3578;51.568;6.932;2022-08-02T04:16:36;54984.06;;;-144.14;99.30
7075;BME280;3578;51.568;6.932;2022-08-02T04:19:08;55030.19;;;-144.14;99.35
7075;BME280;3578;51.568;6.932;2022-08-02T04:21:40;54974.03;;;-144.14;99.29
7075;BME280;3578;51.568;6.932;2022-08-02T04:24:08;54978.03;;;-144.14;99.27
7075;BME280;3578;51.568;6.932;2022-08-02T04:26:38;55006.13;;;-144.14;99.33
7075;BME280;3578;51.568;6.932;2022-08-02T04:29:10;55018.16;;;-144.14;99.39
7075;BME280;3578;51.568;6.932;2022-08-02T04:31:41;54998.09;;;-144.14;99.53
7075;BME280;3578;51.568;6.932;2022-08-02T04:34:08;55032.19;;;-144.14;99.53
7075;BME280;3578;51.568;6.932;2022-08-02T04:36:37;55038.19;;;-144.14;99.44
7075;BME280;3578;51.568;6.932;2022-08-02T04:39:04;55060.25;;;-144.14;99.51
7075;BME280;3578;51.568;6.932;2022-08-02T04:41:39;55024.16;;;-144.14;99.55
7075;BME280;3578;51.568;6.932;2022-08-02T04:44:07;55072.28;;;-144.14;99.47
7075;BME280;3578;51.568;6.932;2022-08-02T04:46:35;55082.31;;;-144.14;99.55
7075;BME280;3578;51.568;6.932;2022-08-02T04:49:03;55114.38;;;-144.14;99.46
7075;BME280;3578;51.568;6.932;2022-08-02T04:51:33;55080.31;;;-144.14;99.44
7075;BME280;3578;51.568;6.932;2022-08-02T04:54:01;55094.34;;;-144.14;99.34
7075;BME280;3578;51.568;6.932;2022-08-02T04:56:28;55092.34;;;-144.14;99.18
7075;BME280;3578;51.568;6.932;2022-08-02T04:58:55;55066.25;;;-144.14;99.18
7075;BME280;3578;51.568;6.932;2022-08-02T05:01:22;55094.34;;;-144.14;99.37
7075;BME280;3578;51.568;6.932;2022-08-02T05:03:49;55092.34;;;-144.14;99.38
7075;BME280;3578;51.568;6.932;2022-08-02T05:06:18;55148.47;;;-144.14;99.33
7075;BME280;3578;51.568;6.932;2022-08-02T05:08:45;55122.41;;;-144.14;99.42
7075;BME280;3578;51.568;6.932;2022-08-02T05:11:12;55174.56;;;-144.14;99.54
7075;BME280;3578;51.568;6.932;2022-08-02T05:13:40;55178.56;;;-144.14;99.60
7075;BME280;3578;51.568;6.932;2022-08-02T05:16:07;55184.56;;;-144.14;99.53
7075;BME280;3578;51.568;6.932;2022-08-02T05:18:34;55238.72;;;-144.14;99.57
7075;BME280;3578;51.568;6.932;2022-08-02T05:21:01;55216.66;;;-144.14;99.32
7075;BME280;3578;51.568;6.932;2022-08-02T05:23:30;55252.75;;;-144.14;99.41
7075;BME280;3578;51.568;6.932;2022-08-02T05:25:57;55304.88;;;-144.14;99.42
7075;BME280;3578;51.568;6.932;2022-08-02T05:28:24;55294.88;;;-144.14;99.49
7075;BME280;3578;51.568;6.932;2022-08-02T05:30:51;55320.94;;;-144.14;99.69
7075;BME280;3578;51.568;6.932;2022-08-02T05:33:18;55272.81;;;-144.14;99.79
7075;BME280;3578;51.568;6.932;2022-08-02T05:35:45;55310.91;;;-144.14;100.00
7075;BME280;3578;51.568;6.932;2022-08-02T05:38:12;55349.00;;;-144.14;100.00
7075;BME280;3578;51.568;6.932;2022-08-02T05:40:40;55377.09;;;-144.14;100.00
7075;BME280;3578;51.568;6.932;2022-08-02T05:43:11;55419.19;;;-144.14;100.00
7075;BME280;3578;51.568;6.932;2022-08-02T05:45:38;55435.25;;;-144.14;100.00
7075;BME280;3578;51.568;6.932;2022-08-02T05:48:05;55467.31;;;-144.14;100.00
7075;BME280;3578;51.568;6.932;2022-08-02T05:50:37;55517.47;;;-144.14;100.00
7075;BME280;3578;51.568;6.932;2022-08-02T05:53:11;55571.59;;;-144.14;100.00
7075;BME280;3578;51.568;6.932;2022-08-02T05:55:50;55571.59;;;-144.14;100.00
7075;BME280;3578;51.568;6.932;2022-08-02T05:58:28;55627.75;;;-144.14;100.00
7075;BME280;3578;51.568;6.932;2022-08-02T06:00:58;55633.78;;;-144.14;100.00
7075;BME280;3578;51.568;6.932;2022-08-02T06:03:31;55663.84;;;-144.14;100.00
7075;BME280;3578;51.568;6.932;2022-08-02T06:06:05;55691.94;;;-144.14;99.96
7075;BME280;3578;51.568;6.932;2022-08-02T06:08:41;55707.97;;;-144.14;99.87
7075;BME280;3578;51.568;6.932;2022-08-02T06:11:13;55750.09;;;-144.14;100.00
7075;BME280;3578;51.568;6.932;2022-08-02T06:13:41;55623.75;;;-144.14;100.00
7075;BME280;3578;51.568;6.932;2022-08-02T06:16:09;55784.19;;;-144.14;100.00
7075;BME280;3578;51.568;6.932;2022-08-02T06:18:36;55800.25;;;-144.14;100.00
7075;BME280;3578;51.568;6.932;2022-08-02T06:21:06;55852.38;;;-144.14;100.00
7075;BME280;3578;51.568;6.932;2022-08-02T06:23:39;55928.59;;;-144.14;99.82
7075;BME280;3578;51.568;6.932;2022-08-02T06:26:09;55944.66;;;-144.14;99.49
7075;BME280;3578;51.568;6.932;2022-08-02T06:28:38;56008.81;;;-144.14;99.31
7075;BME280;3578;51.568;6.932;2022-08-02T06:31:05;56052.94;;;-144.14;98.96
7075;BME280;3578;51.568;6.932;2022-08-02T06:33:32;56117.13;;;-144.14;98.48
7075;BME280;3578;51.568;6.932;2022-08-02T06:36:03;56173.31;;;-144.14;98.21
7075;BME280;3578;51.568;6.932;2022-08-02T06:38:41;56147.22;;;-144.14;98.16
7075;BME280;3578;51.568;6.932;2022-08-02T06:41:13;56217.44;;;-144.14;97.72
7075;BME280;3578;51.568;6.932;2022-08-02T06:43:49;56267.56;;;-144.14;97.24
7075;BME280;3578;51.568;6.932;2022-08-02T06:46:18;56279.59;;;-144.14;96.93
7075;BME280;3578;51.568;6.932;2022-08-02T06:48:46;56295.66;;;-144.14;96.80
7075;BME280;3578;51.568;6.932;2022-08-02T06:51:13;56341.78;;;-144.14;96.95
7075;BME280;3578;51.568;6.932;2022-08-02T06:53:41;56359.84;;;-144.14;97.16
7075;BME280;3578;51.568;6.932;2022-08-02T06:56:08;56389.94;;;-144.14;97.00
7075;BME280;3578;51.568;6.932;2022-08-02T06:58:37;56492.25;;;-144.14;96.70
7075;BME280;3578;51.568;6.932;2022-08-02T07:01:04;56578.50;;;-144.14;96.72
7075;BME280;3578;51.568;6.932;2022-08-02T07:03:33;56646.72;;;-144.14;96.15
7075;BME280;3578;51.568;6.932;2022-08-02T07:06:00;56694.84;;;-144.14;95.66
7075;BME280;3578;51.568;6.932;2022-08-02T07:08:27;56734.97;;;-144.14;95.41
7075;BME280;3578;51.568;6.932;2022-08-02T07:10:57;56759.06;;;-144.14;95.50
7075;BME280;3578;51.568;6.932;2022-08-02T07:13:26;56847.31;;;-144.14;94.40
7075;BME280;3578;51.568;6.932;2022-08-02T07:15:55;56951.66;;;-144.14;93.85
7075;BME280;3578;51.568;6.932;2022-08-02T07:18:23;57100.13;;;-144.14;92.40
7075;BME280;3578;51.568;6.932;2022-08-02T07:20:50;57142.25;;;-144.14;90.94
7075;BME280;3578;51.568;6.932;2022-08-02T07:23:17;57216.50;;;-144.14;89.69
7075;BME280;3578;51.568;6.932;2022-08-02T07:25:45;57256.63;;;-144.14;89.48
7075;BME280;3578;51.568;6.932;2022-08-02T07:28:12;57330.84;;;-144.14;87.97
7075;BME280;3578;51.568;6.932;2022-08-02T07:30:41;57385.03;;;-144.14;86.69
7075;BME280;3578;51.568;6.932;2022-08-02T07:33:09;57405.09;;;-144.14;85.66
7075;BME280;3578;51.568;6.932;2022-08-02T07:35:37;57360.97;;;-144.14;81.86
7075;BME280;3578;51.568;6.932;2022-08-02T07:38:03;57360.97;;;-144.14;81.05
7075;BME280;3578;51.568;6.932;2022-08-02T07:40:31;57393.06;;;-144.14;78.57
7075;BME280;3578;51.568;6.932;2022-08-02T07:42:58;57539.53;;;-144.14;79.54
7075;BME280;3578;51.568;6.932;2022-08-02T07:45:26;57583.69;;;-144.14;76.00
7075;BME280;3578;51.568;6.932;2022-08-02T07:47:53;57629.84;;;-144.14;77.52
7075;BME280;3578;51.568;6.932;2022-08-02T07:50:23;57688.03;;;-144.14;75.67
7075;BME280;3578;51.568;6.932;2022-08-02T07:52:50;57770.31;;;-144.14;75.85
7075;BME280;3578;51.568;6.932;2022-08-02T07:55:17;57786.38;;;-144.14;73.33
7075;BME280;3578;51.568;6.932;2022-08-02T07:57:46;57840.56;;;-144.14;75.09
7075;BME280;3578;51.568;6.932;2022-08-02T08:00:15;57962.97;;;-144.14;72.98
7075;BME280;3578;51.568;6.932;2022-08-02T08:02:43;58019.16;;;-144.14;71.77
7075;BME280;3578;51.568;6.932;2022-08-02T08:05:11;57962.97;;;-144.14;69.60
7075;BME280;3578;51.568;6.932;2022-08-02T08:07:39;57991.06;;;-144.14;68.94
7075;BME280;3578;51.568;6.932;2022-08-02T08:10:07;57936.88;;;-144.14;68.52
7075;BME280;3578;51.568;6.932;2022-08-02T08:12:35;57908.78;;;-144.14;66.67
7075;BME280;3578;51.568;6.932;2022-08-02T08:15:03;57910.78;;;-144.14;66.52
7075;BME280;3578;51.568;6.932;2022-08-02T08:17:30;57942.91;;;-144.14;66.62
7075;BME280;3578;51.568;6.932;2022-08-02T08:19:57;57938.88;;;-144.14;67.08
7075;BME280;3578;51.568;6.932;2022-08-02T08:22:24;57890.72;;;-144.14;67.91
7075;BME280;3578;51.568;6.932;2022-08-02T08:24:53;57886.72;;;-144.14;66.69
7075;BME280;3578;51.568;6.932;2022-08-02T08:27:20;57922.84;;;-144.14;66.91
7075;BME280;3578;51.568;6.932;2022-08-02T08:29:48;57922.84;;;-144.14;62.76
7075;BME280;3578;51.568;6.932;2022-08-02T08:32:15;57954.94;;;-144.14;64.07
7075;BME280;3578;51.568;6.932;2022-08-02T08:34:43;57966.97;;;-144.14;61.33
7075;BME280;3578;51.568;6.932;2022-08-02T08:37:10;58013.13;;;-144.14;60.08
7075;BME280;3578;51.568;6.932;2022-08-02T08:39:37;58023.16;;;-144.14;56.53
7075;BME280;3578;51.568;6.932;2022-08-02T08:42:07;57999.09;;;-144.14;51.57
7075;BME280;3578;51.568;6.932;2022-08-02T08:44:35;58071.34;;;-144.14;51.08
7075;BME280;3578;51.568;6.932;2022-08-02T08:47:04;58171.69;;;-144.14;54.61
7075;BME280;3578;51.568;6.932;2022-08-02T08:49:34;58159.66;;;-144.14;53.26
7075;BME280;3578;51.568;6.932;2022-08-02T08:52:05;58191.75;;;-144.14;52.94
7075;BME280;3578;51.568;6.932;2022-08-02T08:54:34;58189.75;;;-144.14;55.28
7075;BME280;3578;51.568;6.932;2022-08-02T08:57:05;58235.91;;;-144.14;55.53
7075;BME280;3578;51.568;6.932;2022-08-02T08:59:34;58179.72;;;-144.14;55.68
7075;BME280;3578;51.568;6.932;2022-08-02T09:02:02;58167.69;;;-144.14;56.81
7075;BME280;3578;51.568;6.932;2022-08-02T09:04:29;58179.72;;;-144.14;58.09
7075;BME280;3578;51.568;6.932;2022-08-02T09:06:57;58167.69;;;-144.14;58.84
7075;BME280;3578;51.568;6.932;2022-08-02T09:09:24;58249.97;;;-144.14;59.80
7075;BME280;3578;51.568;6.932;2022-08-02T09:11:51;58282.06;;;-144.14;60.22
7075;BME280;3578;51.568;6.932;2022-08-02T09:14:28;58378.41;;;-144.14;62.96
7075;BME280;3578;51.568;6.932;2022-08-02T09:17:06;58462.72;;;-144.14;61.83
7075;BME280;3578;51.568;6.932;2022-08-02T09:19:33;58436.63;;;-144.14;57.70
7075;BME280;3578;51.568;6.932;2022-08-02T09:22:04;58488.81;;;-144.14;59.44
7075;BME280;3578;51.568;6.932;2022-08-02T09:24:43;58563.06;;;-144.14;60.93
7075;BME280;3578;51.568;6.932;2022-08-02T09:27:12;58561.06;;;-144.14;60.78
7075;BME280;3578;51.568;6.932;2022-08-02T09:29:45;58577.13;;;-144.14;58.82
7075;BME280;3578;51.568;6.932;2022-08-02T09:32:13;58629.31;;;-144.14;58.76
7075;BME280;3578;51.568;6.932;2022-08-02T09:34:51;58591.19;;;-144.14;58.42
7075;BME280;3578;51.568;6.932;2022-08-02T09:37:24;58689.53;;;-144.14;59.07
7075;BME280;3578;51.568;6.932;2022-08-02T09:39:51;58711.63;;;-144.14;58.42
7075;BME280;3578;51.568;6.932;2022-08-02T09:42:18;58765.81;;;-144.14;59.15
7075;BME280;3578;51.568;6.932;2022-08-02T09:44:58;58767.81;;;-144.14;57.35
7075;BME280;3578;51.568;6.932;2022-08-02T09:47:27;58725.66;;;-144.14;56.51
7075;BME280;3578;51.568;6.932;2022-08-02T09:49:57;58721.66;;;-144.14;57.93
7075;BME280;3578;51.568;6.932;2022-08-02T09:52:28;58807.97;;;-144.14;60.74
7075;BME280;3578;51.568;6.932;2022-08-02T09:55:02;58745.75;;;-144.14;59.54
7075;BME280;3578;51.568;6.932;2022-08-02T09:57:31;58549.03;;;-144.14;58.00
7075;BME280;3578;51.568;6.932;2022-08-02T10:00:08;58735.69;;;-144.14;57.77
7075;BME280;3578;51.568;6.932;2022-08-02T10:02:36;58753.78;;;-144.14;57.21
7075;BME280;3578;51.568;6.932;2022-08-02T10:05:04;58745.75;;;-144.14;56.58
7075;BME280;3578;51.568;6.932;2022-08-02T10:07:31;58822.03;;;-144.14;57.61
7075;BME280;3578;51.568;6.932;2022-08-02T10:09:58;58834.06;;;-144.14;56.20
7075;BME280;3578;51.568;6.932;2022-08-02T10:12:25;58858.16;;;-144.14;55.10
7075;BME280;3578;51.568;6.932;2022-08-02T10:14:53;58882.25;;;-144.14;54.54
7075;BME280;3578;51.568;6.932;2022-08-02T10:17:21;58982.63;;;-144.14;55.53
7075;BME280;3578;51.568;6.932;2022-08-02T10:19:48;59010.72;;;-144.14;55.48
7075;BME280;3578;51.568;6.932;2022-08-02T10:22:15;59058.91;;;-144.14;54.96
7075;BME280;3578;51.568;6.932;2022-08-02T10:24:44;59097.03;;;-144.14;54.50
7075;BME280;3578;51.568;6.932;2022-08-02T10:27:15;59157.28;;;-144.14;54.38
7075;BME280;3578;51.568;6.932;2022-08-02T10:29:47;59199.44;;;-144.14;52.94
7075;BME280;3578;51.568;6.932;2022-08-02T10:32:23;59285.75;;;-144.14;53.84
7075;BME280;3578;51.568;6.932;2022-08-02T10:34:56;59352.00;;;-144.14;54.20
7075;BME280;3578;51.568;6.932;2022-08-02T10:37:28;59394.19;;;-144.14;52.94
7075;BME280;3578;51.568;6.932;2022-08-02T10:39:57;59370.09;;;-144.14;51.77
7075;BME280;3578;51.568;6.932;2022-08-02T10:42:45;59390.16;;;-144.14;51.95
7075;BME280;3578;51.568;6.932;2022-08-02T10:45:16;59472.47;;;-144.14;52.99
7075;BME280;3578;51.568;6.932;2022-08-02T10:48:01;59518.66;;;-144.14;53.66
7075;BME280;3578;51.568;6.932;2022-08-02T10:50:54;59462.44;;;-144.14;51.32
7075;BME280;3578;51.568;6.932;2022-08-02T10:53:27;59576.88;;;-144.14;49.50
7075;BME280;3578;51.568;6.932;2022-08-02T10:55:55;59538.72;;;-144.14;48.26
7075;BME280;3578;51.568;6.932;2022-08-02T10:58:25;59552.78;;;-144.14;48.90
7075;BME280;3578;51.568;6.932;2022-08-02T11:00:55;59623.06;;;-144.14;48.88
7075;BME280;3578;51.568;6.932;2022-08-02T11:03:37;59729.47;;;-144.14;51.19
7075;BME280;3578;51.568;6.932;2022-08-02T11:06:07;59795.75;;;-144.14;48.88
7075;BME280;3578;51.568;6.932;2022-08-02T11:08:34;59787.72;;;-144.14;47.42
7075;BME280;3578;51.568;6.932;2022-08-02T11:11:16;59741.53;;;-144.14;45.96
7075;BME280;3578;51.568;6.932;2022-08-02T11:13:59;59851.97;;;-144.14;47.56
7075;BME280;3578;51.568;6.932;2022-08-02T11:17:13;59906.19;;;-144.14;45.66
7075;BME280;3578;51.568;6.932;2022-08-02T11:20:19;59890.13;;;-144.14;45.96
7075;BME280;3578;51.568;6.932;2022-08-02T11:22:48;59817.84;;;-144.14;45.73
7075;BME280;3578;51.568;6.932;2022-08-02T11:25:33;59763.63;;;-144.14;45.90
7075;BME280;3578;51.568;6.932;2022-08-02T11:28:10;59771.66;;;-144.14;45.56
7075;BME280;3578;51.568;6.932;2022-08-02T11:30:38;59821.84;;;-144.14;44.91
7075;BME280;3578;51.568;6.932;2022-08-02T11:33:05;59795.75;;;-144.14;44.37
7075;BME280;3578;51.568;6.932;2022-08-02T11:35:37;59807.78;;;-144.14;44.18
7075;BME280;3578;51.568;6.932;2022-08-02T11:38:16;59813.81;;;-144.14;44.42
7075;BME280;3578;51.568;6.932;2022-08-02T11:40:44;59902.16;;;-144.14;45.20
7075;BME280;3578;51.568;6.932;2022-08-02T11:43:20;59984.50;;;-144.14;46.99
7075;BME280;3578;51.568;6.932;2022-08-02T11:45:48;60038.72;;;-144.14;45.96
7075;BME280;3578;51.568;6.932;2022-08-02T11:48:33;60062.81;;;-144.14;44.35
7075;BME280;3578;51.568;6.932;2022-08-02T11:51:10;60094.94;;;-144.14;45.29
7075;BME280;3578;51.568;6.932;2022-08-02T11:53:43;60137.13;;;-144.14;45.79
7075;BME280;3578;51.568;6.932;2022-08-02T11:56:10;60092.94;;;-144.14;44.72
7075;BME280;3578;51.568;6.932;2022-08-02T11:58:38;59978.47;;;-144.14;43.27
7075;BME280;3578;51.568;6.932;2022-08-02T12:01:05;60022.66;;;-144.14;44.54
7075;BME280;3578;51.568;6.932;2022-08-02T12:03:35;59894.13;;;-144.14;43.51
7075;BME280;3578;51.568;6.932;2022-08-02T12:06:03;59765.63;;;-144.14;43.77
7075;BME280;3578;51.568;6.932;2022-08-02T12:08:35;59823.84;;;-144.14;43.67
7075;BME280;3578;51.568;6.932;2022-08-02T12:11:02;59795.75;;;-144.14;43.66
7075;BME280;3578;51.568;6.932;2022-08-02T12:13:41;59924.25;;;-144.14;45.22
7075;BME280;3578;51.568;6.932;2022-08-02T12:16:10;59970.44;;;-144.14;45.19
7075;BME280;3578;51.568;6.932;2022-08-02T12:18:55;59982.50;;;-144.14;44.04
7075;BME280;3578;51.568;6.932;2022-08-02T12:21:40;59868.03;;;-144.14;43.09
7075;BME280;3578;51.568;6.932;2022-08-02T12:24:10;59853.97;;;-144.14;43.96
7075;BME280;3578;51.568;6.932;2022-08-02T12:26:41;59870.03;;;-144.14;44.54
7075;BME280;3578;51.568;6.932;2022-08-02T12:29:09;59853.97;;;-144.14;44.46
7075;BME280;3578;51.568;6.932;2022-08-02T12:31:42;59938.31;;;-144.14;44.99
7075;BME280;3578;51.568;6.932;2022-08-02T12:34:15;59860.00;;;-144.14;42.57
7075;BME280;3578;51.568;6.932;2022-08-02T12:36:55;59853.97;;;-144.14;42.29
7075;BME280;3578;51.568;6.932;2022-08-02T12:39:35;59845.94;;;-144.14;40.92
7075;BME280;3578;51.568;6.932;2022-08-02T12:42:04;59793.72;;;-144.14;40.75
7075;BME280;3578;51.568;6.932;2022-08-02T12:44:31;59858.00;;;-144.14;41.68
7075;BME280;3578;51.568;6.932;2022-08-02T12:47:00;59990.53;;;-144.14;42.72
7075;BME280;3578;51.568;6.932;2022-08-02T12:49:29;60052.78;;;-144.14;43.69
7075;BME280;3578;51.568;6.932;2022-08-02T12:51:56;60052.78;;;-144.14;42.33
7075;BME280;3578;51.568;6.932;2022-08-02T12:54:26;60024.66;;;-144.14;41.17
7075;BME280;3578;51.568;6.932;2022-08-02T12:56:53;59946.34;;;-144.14;41.13
7075;BME280;3578;51.568;6.932;2022-08-02T12:59:34;60058.78;;;-144.14;42.93
7075;BME280;3578;51.568;6.932;2022-08-02T13:02:03;60088.91;;;-144.14;42.82
7075;BME280;3578;51.568;6.932;2022-08-02T13:04:31;60072.84;;;-144.14;41.57
7075;BME280;3578;51.568;6.932;2022-08-02T13:06:59;60050.75;;;-144.14;41.10
7075;BME280;3578;51.568;6.932;2022-08-02T13:09:34;60062.81;;;-144.14;41.88
7075;BME280;3578;51.568;6.932;2022-08-02T13:12:03;60191.34;;;-144.14;41.44
7075;BME280;3578;51.568;6.932;2022-08-02T13:14:31;60153.19;;;-144.14;41.46
7075;BME280;3578;51.568;6.932;2022-08-02T13:16:58;60163.22;;;-144.14;42.44